sensor_id;sensor_type;location;lat;lon;timestamp;pressure;altitude;pressure_sealevel;temperature;humidity
29371;BME280;16357;52.188;7.838;2023-02-23T00:01:17;100504.91;;;11.74;64.10
29371;BME280;16357;52.188;7.838;2023-02-23T00:03:45;100510.09;;;11.76;64.38
29371;BME280;16357;52.188;7.838;2023-02-23T00:06:12;100501.19;;;11.75;64.30
29371;BME280;16357;52.188;7.838;2023-02-23T00:08:39;100510.28;;;11.74;64.36
29371;BME280;16357;52.188;7.838;2023-02-23T00:11:08;100513.63;;;11.76;64.36
29371;BME280;16357;52.188;7.838;2023-02-23T00:13:38;100509.25;;;11.75;64.46
29371;BME280;16357;52.188;7.838;2023-02-23T00:16:10;100512.63;;;11.77;64.56
29371;BME280;16357;52.188;7.838;2023-02-23T00:18:42;100507.91;;;11.79;64.64
29371;BME280;16357;52.188;7.838;2023-02-23T00:21:15;100517.81;;;11.79;64.78
29371;BME280;16357;52.188;7.838;2023-02-23T00:23:55;100513.94;;;11.81;64.59
29371;BME280;16357;52.188;7.838;2023-02-23T00:26:25;100515.66;;;11.82;64.68
29371;BME280;16357;52.188;7.838;2023-02-23T00:28:56;100521.84;;;11.83;64.86
29371;BME280;16357;52.188;7.838;2023-02-23T00:31:24;100511.94;;;11.83;64.73
29371;BME280;16357;52.188;7.838;2023-02-23T00:33:57;100510.91;;;11.84;64.67
29371;BME280;16357;52.188;7.838;2023-02-23T00:36:26;100509.25;;;11.83;64.76
29371;BME280;16357;52.188;7.838;2023-02-23T00:38:55;100510.28;;;11.82;64.94
29371;BME280;16357;52.188;7.838;2023-02-23T00:41:22;100512.97;;;11.82;64.71
29371;BME280;16357;52.188;7.838;2023-02-23T00:43:55;100520.00;;;11.83;64.67
29371;BME280;16357;52.188;7.838;2023-02-23T00:46:24;100512.97;;;11.82;64.68
29371;BME280;16357;52.188;7.838;2023-02-23T00:48:53;100518.34;;;11.82;64.92
29371;BME280;16357;52.188;7.838;2023-02-23T00:51:25;100519.16;;;11.83;64.79
29371;BME280;16357;52.188;7.838;2023-02-23T00:53:58;100511.94;;;11.83;64.73
29371;BME280;16357;52.188;7.838;2023-02-23T00:56:26;100508.41;;;11.83;64.67
29371;BME280;16357;52.188;7.838;2023-02-23T00:58:53;100510.28;;;11.82;64.72
29371;BME280;16357;52.188;7.838;2023-02-23T01:01:20;100507.59;;;11.82;64.87
29371;BME280;16357;52.188;7.838;2023-02-23T01:03:47;100511.94;;;11.83;64.74
29371;BME280;16357;52.188;7.838;2023-02-23T01:06:15;100516.47;;;11.83;64.90
29371;BME280;16357;52.188;7.838;2023-02-23T01:08:44;100512.78;;;11.84;64.79
29371;BME280;16357;52.188;7.838;2023-02-23T01:11:14;100512.78;;;11.84;64.86
29371;BME280;16357;52.188;7.838;2023-02-23T01:13:43;100517.16;;;11.85;64.70
29371;BME280;16357;52.188;7.838;2023-02-23T01:16:13;100516.28;;;11.84;64.76
29371;BME280;16357;52.188;7.838;2023-02-23T01:18:41;100518.16;;;11.84;64.90
29371;BME280;16357;52.188;7.838;2023-02-23T01:21:17;100513.47;;;11.86;64.80
29371;BME280;16357;52.188;7.838;2023-02-23T01:23:44;100518.00;;;11.85;64.98
29371;BME280;16357;52.188;7.838;2023-02-23T01:26:18;100516.84;;;11.88;64.89
29371;BME280;16357;52.188;7.838;2023-02-23T01:28:53;100518.50;;;11.89;65.04
29371;BME280;16357;52.188;7.838;2023-02-23T01:31:21;100524.72;;;11.90;64.92
29371;BME280;16357;52.188;7.838;2023-02-23T01:33:52;100518.16;;;11.92;64.95
29371;BME280;16357;52.188;7.838;2023-02-23T01:36:20;100521.03;;;11.91;64.89
29371;BME280;16357;52.188;7.838;2023-02-23T01:38:46;100511.94;;;11.92;64.93
29371;BME280;16357;52.188;7.838;2023-02-23T01:41:14;100513.63;;;11.93;65.05
29371;BME280;16357;52.188;7.838;2023-02-23T01:44:08;100503.53;;;11.95;64.83
29371;BME280;16357;52.188;7.838;2023-02-23T01:46:53;100507.94;;;11.96;64.83
29371;BME280;16357;52.188;7.838;2023-02-23T01:49:23;100506.22;;;11.95;64.44
29371;BME280;16357;52.188;7.838;2023-02-23T01:52:13;100499.00;;;11.95;64.96
29371;BME280;16357;52.188;7.838;2023-02-23T01:54:45;100507.06;;;11.95;64.82
29371;BME280;16357;52.188;7.838;2023-02-23T01:57:17;100511.59;;;11.95;64.87
29371;BME280;16357;52.188;7.838;2023-02-23T01:59:47;100505.41;;;11.94;65.06
29371;BME280;16357;52.188;7.838;2023-02-23T02:02:20;100507.25;;;11.94;64.92
29371;BME280;16357;52.188;7.838;2023-02-23T02:04:48;100505.56;;;11.93;65.04
29371;BME280;16357;52.188;7.838;2023-02-23T02:07:21;100500.84;;;11.95;65.03
29371;BME280;16357;52.188;7.838;2023-02-23T02:09:51;100506.22;;;11.95;64.97
29371;BME280;16357;52.188;7.838;2023-02-23T02:12:51;100507.06;;;11.95;64.85
29371;BME280;16357;52.188;7.838;2023-02-23T02:15:21;100506.22;;;11.95;65.16
29371;BME280;16357;52.188;7.838;2023-02-23T02:18:12;100503.53;;;11.95;64.95
29371;BME280;16357;52.188;7.838;2023-02-23T02:29:42;100499.19;;;11.94;65.21
29371;BME280;16357;52.188;7.838;2023-02-23T02:32:30;100491.13;;;11.94;65.12
29371;BME280;16357;52.188;7.838;2023-02-23T02:41:16;100497.50;;;11.93;65.04
29371;BME280;16357;52.188;7.838;2023-02-23T02:43:50;100498.50;;;11.92;65.25
29371;BME280;16357;52.188;7.838;2023-02-23T02:46:29;100495.81;;;11.92;65.12
29371;BME280;16357;52.188;7.838;2023-02-23T02:51:34;100496.84;;;11.91;65.43
29371;BME280;16357;52.188;7.838;2023-02-23T02:56:37;100495.16;;;11.90;65.37
29371;BME280;16357;52.188;7.838;2023-02-23T02:59:17;100489.78;;;11.90;65.19
29371;BME280;16357;52.188;7.838;2023-02-23T03:02:04;100479.22;;;11.88;65.43
29371;BME280;16357;52.188;7.838;2023-02-23T03:04:49;100487.44;;;11.86;65.41
29371;BME280;16357;52.188;7.838;2023-02-23T03:07:47;100479.38;;;11.86;65.28
29371;BME280;16357;52.188;7.838;2023-02-23T03:10:41;100494.78;;;11.84;65.33
29371;BME280;16357;52.188;7.838;2023-02-23T03:13:47;100492.09;;;11.84;65.28
29371;BME280;16357;52.188;7.838;2023-02-23T03:16:43;100498.50;;;11.83;65.46
29371;BME280;16357;52.188;7.838;2023-02-23T03:19:42;100501.19;;;11.83;65.36
29371;BME280;16357;52.188;7.838;2023-02-23T03:22:46;100499.53;;;11.82;65.36
29371;BME280;16357;52.188;7.838;2023-02-23T03:26:07;100498.66;;;11.82;65.42
29371;BME280;16357;52.188;7.838;2023-02-23T03:29:03;100498.66;;;11.82;65.33
29371;BME280;16357;52.188;7.838;2023-02-23T03:32:13;100499.69;;;11.81;65.56
29371;BME280;16357;52.188;7.838;2023-02-23T03:35:16;100502.53;;;11.79;65.36
29371;BME280;16357;52.188;7.838;2023-02-23T03:38:18;100501.69;;;11.79;65.53
29371;BME280;16357;52.188;7.838;2023-02-23T03:41:07;100498.31;;;11.77;65.49
29371;BME280;16357;52.188;7.838;2023-02-23T03:43:58;100501.88;;;11.77;65.44
29371;BME280;16357;52.188;7.838;2023-02-23T03:46:46;100501.19;;;11.75;65.80
29371;BME280;16357;52.188;7.838;2023-02-23T03:49:34;100495.81;;;11.75;65.75
29371;BME280;16357;52.188;7.838;2023-02-23T03:52:28;100502.03;;;11.76;65.73
29371;BME280;16357;52.188;7.838;2023-02-23T03:55:19;100495.81;;;11.75;65.73
29371;BME280;16357;52.188;7.838;2023-02-23T03:58:09;100498.50;;;11.75;65.68
29371;BME280;16357;52.188;7.838;2023-02-23T04:00:58;100506.56;;;11.75;65.80
29371;BME280;16357;52.188;7.838;2023-02-23T04:03:47;100503.22;;;11.73;65.78
29371;BME280;16357;52.188;7.838;2023-02-23T04:06:38;100504.03;;;11.74;65.62
29371;BME280;16357;52.188;7.838;2023-02-23T04:09:23;100506.72;;;11.74;66.51
29371;BME280;16357;52.188;7.838;2023-02-23T04:12:13;100497.84;;;11.73;65.91
29371;BME280;16357;52.188;7.838;2023-02-23T04:15:12;100510.28;;;11.74;65.99
29371;BME280;16357;52.188;7.838;2023-02-23T04:17:41;100509.41;;;11.74;66.10
29371;BME280;16357;52.188;7.838;2023-02-23T04:20:09;100504.91;;;11.74;66.08
29371;BME280;16357;52.188;7.838;2023-02-23T04:22:37;100510.28;;;11.74;66.20
29371;BME280;16357;52.188;7.838;2023-02-23T04:25:04;100504.03;;;11.74;66.26
29371;BME280;16357;52.188;7.838;2023-02-23T04:27:31;100510.28;;;11.74;66.33
29371;BME280;16357;52.188;7.838;2023-02-23T04:29:57;100505.75;;;11.75;66.19
29371;BME280;16357;52.188;7.838;2023-02-23T04:32:24;100506.56;;;11.75;66.09
29371;BME280;16357;52.188;7.838;2023-02-23T04:34:50;100511.94;;;11.75;66.17
29371;BME280;16357;52.188;7.838;2023-02-23T04:37:17;100503.06;;;11.75;66.32
29371;BME280;16357;52.188;7.838;2023-02-23T04:39:43;100517.47;;;11.74;66.08
29371;BME280;16357;52.188;7.838;2023-02-23T04:42:14;100504.91;;;11.74;66.29
29371;BME280;16357;52.188;7.838;2023-02-23T04:44:41;100509.41;;;11.74;66.24
29371;BME280;16357;52.188;7.838;2023-02-23T04:47:07;100514.97;;;11.72;66.22
29371;BME280;16357;52.188;7.838;2023-02-23T04:49:34;100506.09;;;11.72;66.14
29371;BME280;16357;52.188;7.838;2023-02-23T04:52:00;100511.47;;;11.72;66.17
29371;BME280;16357;52.188;7.838;2023-02-23T04:54:26;100519.69;;;11.70;66.19
29371;BME280;16357;52.188;7.838;2023-02-23T04:56:53;100523.38;;;11.69;66.17
29371;BME280;16357;52.188;7.838;2023-02-23T04:59:19;100518.16;;;11.68;66.22
29371;BME280;16357;52.188;7.838;2023-02-23T05:01:46;100510.09;;;11.68;66.22
29371;BME280;16357;52.188;7.838;2023-02-23T05:04:12;100522.72;;;11.67;66.45
29371;BME280;16357;52.188;7.838;2023-02-23T05:06:38;100520.19;;;11.65;66.41
29371;BME280;16357;52.188;7.838;2023-02-23T05:09:08;100520.38;;;11.64;66.51
29371;BME280;16357;52.188;7.838;2023-02-23T05:11:34;100519.50;;;11.63;66.53
29371;BME280;16357;52.188;7.838;2023-02-23T05:14:00;100528.44;;;11.64;66.52
29371;BME280;16357;52.188;7.838;2023-02-23T05:16:27;100519.50;;;11.63;66.64
29371;BME280;16357;52.188;7.838;2023-02-23T05:18:53;100533.13;;;11.62;66.78
29371;BME280;16357;52.188;7.838;2023-02-23T05:21:19;100524.22;;;11.61;66.63
29371;BME280;16357;52.188;7.838;2023-02-23T05:23:46;100531.44;;;11.61;66.70
29371;BME280;16357;52.188;7.838;2023-02-23T05:26:13;100533.13;;;11.62;66.53
29371;BME280;16357;52.188;7.838;2023-02-23T05:28:41;100531.44;;;11.61;66.72
29371;BME280;16357;52.188;7.838;2023-02-23T05:31:08;100531.44;;;11.61;66.70
29371;BME280;16357;52.188;7.838;2023-02-23T05:33:36;100529.75;;;11.60;66.69
29371;BME280;16357;52.188;7.838;2023-02-23T05:36:12;100532.28;;;11.61;66.60
29371;BME280;16357;52.188;7.838;2023-02-23T05:38:38;100535.97;;;11.60;66.90
29371;BME280;16357;52.188;7.838;2023-02-23T05:41:16;100530.59;;;11.60;66.95
29371;BME280;16357;52.188;7.838;2023-02-23T05:43:44;100527.91;;;11.60;66.85
29371;BME280;16357;52.188;7.838;2023-02-23T05:46:13;100529.75;;;11.60;66.90
29371;BME280;16357;52.188;7.838;2023-02-23T05:48:40;100529.75;;;11.60;66.83
29371;BME280;16357;52.188;7.838;2023-02-23T05:51:09;100532.44;;;11.60;66.86
29371;BME280;16357;52.188;7.838;2023-02-23T05:53:36;100526.41;;;11.58;66.93
29371;BME280;16357;52.188;7.838;2023-02-23T05:56:04;100526.41;;;11.58;67.04
29371;BME280;16357;52.188;7.838;2023-02-23T05:58:31;100530.94;;;11.57;67.01
29371;BME280;16357;52.188;7.838;2023-02-23T06:00:58;100522.72;;;11.59;67.22
29371;BME280;16357;52.188;7.838;2023-02-23T06:03:24;100531.75;;;11.58;67.10
29371;BME280;16357;52.188;7.838;2023-02-23T06:05:52;100537.97;;;11.58;66.95
29371;BME280;16357;52.188;7.838;2023-02-23T06:08:19;100534.44;;;11.58;67.13
29371;BME280;16357;52.188;7.838;2023-02-23T06:10:46;100531.75;;;11.58;67.20
29371;BME280;16357;52.188;7.838;2023-02-23T06:13:13;100537.97;;;11.58;67.31
29371;BME280;16357;52.188;7.838;2023-02-23T06:15:40;100537.13;;;11.58;67.34
29371;BME280;16357;52.188;7.838;2023-02-23T06:18:06;100535.28;;;11.58;67.29
29371;BME280;16357;52.188;7.838;2023-02-23T06:20:34;100532.59;;;11.58;67.22
29371;BME280;16357;52.188;7.838;2023-02-23T06:23:01;100542.50;;;11.58;67.08
29371;BME280;16357;52.188;7.838;2023-02-23T06:25:28;100545.88;;;11.60;67.41
29371;BME280;16357;52.188;7.838;2023-02-23T06:27:54;100551.25;;;11.60;67.07
29371;BME280;16357;52.188;7.838;2023-02-23T06:30:21;100544.22;;;11.59;67.32
29371;BME280;16357;52.188;7.838;2023-02-23T06:32:48;100554.97;;;11.59;67.34
29371;BME280;16357;52.188;7.838;2023-02-23T06:35:14;100556.63;;;11.60;67.28
29371;BME280;16357;52.188;7.838;2023-02-23T06:37:41;100560.97;;;11.61;67.31
29371;BME280;16357;52.188;7.838;2023-02-23T06:40:09;100569.03;;;11.61;67.24
29371;BME280;16357;52.188;7.838;2023-02-23T06:42:35;100564.53;;;11.61;67.28
29371;BME280;16357;52.188;7.838;2023-02-23T06:45:03;100566.19;;;11.62;67.28
29371;BME280;16357;52.188;7.838;2023-02-23T06:47:29;100571.41;;;11.64;67.14
29371;BME280;16357;52.188;7.838;2023-02-23T06:49:56;100572.41;;;11.63;67.21
29371;BME280;16357;52.188;7.838;2023-02-23T06:52:22;100569.72;;;11.63;67.13
29371;BME280;16357;52.188;7.838;2023-02-23T06:54:51;100577.78;;;11.63;67.18
29371;BME280;16357;52.188;7.838;2023-02-23T06:57:17;100575.28;;;11.61;67.13
29371;BME280;16357;52.188;7.838;2023-02-23T06:59:44;100577.09;;;11.61;67.05
29371;BME280;16357;52.188;7.838;2023-02-23T07:02:11;100578.94;;;11.60;67.07
29371;BME280;16357;52.188;7.838;2023-02-23T07:04:38;100581.81;;;11.59;66.86
29371;BME280;16357;52.188;7.838;2023-02-23T07:07:05;100582.81;;;11.58;67.07
29371;BME280;16357;52.188;7.838;2023-02-23T07:09:31;100584.66;;;11.57;66.85
29371;BME280;16357;52.188;7.838;2023-02-23T07:11:58;100583.84;;;11.57;66.81
29371;BME280;16357;52.188;7.838;2023-02-23T07:14:25;100581.16;;;11.57;66.82
29371;BME280;16357;52.188;7.838;2023-02-23T07:16:53;100587.34;;;11.57;66.60
29371;BME280;16357;52.188;7.838;2023-02-23T07:19:20;100583.84;;;11.57;66.83
29371;BME280;16357;52.188;7.838;2023-02-23T07:21:46;100591.91;;;11.57;66.74
29371;BME280;16357;52.188;7.838;2023-02-23T07:24:12;100602.63;;;11.57;66.99
29371;BME280;16357;52.188;7.838;2023-02-23T07:26:39;100600.78;;;11.57;66.81
29371;BME280;16357;52.188;7.838;2023-02-23T07:29:08;100604.31;;;11.58;66.85
29371;BME280;16357;52.188;7.838;2023-02-23T07:31:35;100607.00;;;11.58;66.84
29371;BME280;16357;52.188;7.838;2023-02-23T07:34:02;100602.63;;;11.57;66.70
29371;BME280;16357;52.188;7.838;2023-02-23T07:36:29;100611.38;;;11.59;66.71
29371;BME280;16357;52.188;7.838;2023-02-23T07:38:55;100609.53;;;11.59;66.52
29371;BME280;16357;52.188;7.838;2023-02-23T07:41:22;100609.53;;;11.59;66.42
29371;BME280;16357;52.188;7.838;2023-02-23T07:43:49;100609.53;;;11.59;66.62
29371;BME280;16357;52.188;7.838;2023-02-23T07:46:15;100610.38;;;11.60;66.51
29371;BME280;16357;52.188;7.838;2023-02-23T07:48:43;100613.03;;;11.60;66.47
29371;BME280;16357;52.188;7.838;2023-02-23T07:51:11;100615.75;;;11.60;66.30
29371;BME280;16357;52.188;7.838;2023-02-23T07:53:38;100618.28;;;11.61;66.36
29371;BME280;16357;52.188;7.838;2023-02-23T07:56:06;100615.59;;;11.61;66.36
29371;BME280;16357;52.188;7.838;2023-02-23T07:58:37;100627.16;;;11.62;66.45
29371;BME280;16357;52.188;7.838;2023-02-23T08:01:04;100628.00;;;11.62;66.45
29371;BME280;16357;52.188;7.838;2023-02-23T08:03:31;100623.47;;;11.63;66.73
29371;BME280;16357;52.188;7.838;2023-02-23T08:05:57;100631.53;;;11.63;66.57
29371;BME280;16357;52.188;7.838;2023-02-23T08:08:24;100626.97;;;11.63;66.41
29371;BME280;16357;52.188;7.838;2023-02-23T08:10:58;100636.56;;;11.66;66.59
29371;BME280;16357;52.188;7.838;2023-02-23T08:13:25;100634.88;;;11.65;66.59
29371;BME280;16357;52.188;7.838;2023-02-23T08:15:51;100636.56;;;11.66;66.53
29371;BME280;16357;52.188;7.838;2023-02-23T08:18:18;100637.41;;;11.67;66.69
29371;BME280;16357;52.188;7.838;2023-02-23T08:20:44;100642.78;;;11.67;66.44
29371;BME280;16357;52.188;7.838;2023-02-23T08:23:11;100643.63;;;11.67;66.37
29371;BME280;16357;52.188;7.838;2023-02-23T08:25:37;100643.63;;;11.67;66.57
29371;BME280;16357;52.188;7.838;2023-02-23T08:28:04;100648.00;;;11.68;66.58
29371;BME280;16357;52.188;7.838;2023-02-23T08:30:32;100647.00;;;11.69;66.42
29371;BME280;16357;52.188;7.838;2023-02-23T08:32:59;100648.66;;;11.70;66.62
29371;BME280;16357;52.188;7.838;2023-02-23T08:35:27;100645.97;;;11.70;66.44
29371;BME280;16357;52.188;7.838;2023-02-23T08:37:56;100654.72;;;11.72;66.36
29371;BME280;16357;52.188;7.838;2023-02-23T08:40:23;100653.72;;;11.73;66.50
29371;BME280;16357;52.188;7.838;2023-02-23T08:42:49;100658.09;;;11.74;66.21
29371;BME280;16357;52.188;7.838;2023-02-23T08:45:18;100650.03;;;11.74;66.18
29371;BME280;16357;52.188;7.838;2023-02-23T08:47:44;100652.72;;;11.74;66.20
29371;BME280;16357;52.188;7.838;2023-02-23T08:50:12;100655.41;;;11.74;66.31
29371;BME280;16357;52.188;7.838;2023-02-23T08:52:39;100658.75;;;11.76;66.10
29371;BME280;16357;52.188;7.838;2023-02-23T08:55:06;100660.44;;;11.77;66.20
29371;BME280;16357;52.188;7.838;2023-02-23T08:57:33;100658.41;;;11.79;66.24
29371;BME280;16357;52.188;7.838;2023-02-23T09:00:00;100661.09;;;11.79;66.32
29371;BME280;16357;52.188;7.838;2023-02-23T09:02:27;100658.94;;;11.83;66.59
29371;BME280;16357;52.188;7.838;2023-02-23T09:04:57;100657.75;;;11.85;66.45
29371;BME280;16357;52.188;7.838;2023-02-23T09:07:24;100654.09;;;11.86;66.26
29371;BME280;16357;52.188;7.838;2023-02-23T09:09:55;100660.81;;;11.91;66.29
29371;BME280;16357;52.188;7.838;2023-02-23T09:12:21;100662.34;;;11.93;66.58
29371;BME280;16357;52.188;7.838;2023-02-23T09:14:48;100663.84;;;11.96;66.30
29371;BME280;16357;52.188;7.838;2023-02-23T09:17:17;100658.13;;;11.99;66.66
29371;BME280;16357;52.188;7.838;2023-02-23T09:19:43;100663.16;;;12.02;66.22
29371;BME280;16357;52.188;7.838;2023-02-23T09:22:10;100664.53;;;12.06;66.42
29371;BME280;16357;52.188;7.838;2023-02-23T09:24:36;100657.13;;;12.08;66.02
29371;BME280;16357;52.188;7.838;2023-02-23T09:27:04;100663.84;;;12.12;66.20
29371;BME280;16357;52.188;7.838;2023-02-23T09:29:33;100662.66;;;12.15;65.98
29371;BME280;16357;52.188;7.838;2023-02-23T09:31:59;100670.56;;;12.16;65.62
29371;BME280;16357;52.188;7.838;2023-02-23T09:34:26;100666.03;;;12.17;65.42
29371;BME280;16357;52.188;7.838;2023-02-23T09:36:55;100678.47;;;12.18;65.44
29371;BME280;16357;52.188;7.838;2023-02-23T09:39:22;100679.28;;;12.18;65.57
29371;BME280;16357;52.188;7.838;2023-02-23T09:42:11;100679.28;;;12.18;65.27
29371;BME280;16357;52.188;7.838;2023-02-23T09:45:12;100679.28;;;12.18;65.28
29371;BME280;16357;52.188;7.838;2023-02-23T09:47:59;100686.69;;;12.16;65.46
29371;BME280;16357;52.188;7.838;2023-02-23T09:50:32;100682.31;;;12.15;65.42
29371;BME280;16357;52.188;7.838;2023-02-23T09:53:09;100685.84;;;12.16;65.36
29371;BME280;16357;52.188;7.838;2023-02-23T09:55:40;100692.06;;;12.16;65.46
29371;BME280;16357;52.188;7.838;2023-02-23T09:58:18;100683.00;;;12.17;65.40
29371;BME280;16357;52.188;7.838;2023-02-23T10:00:55;100689.22;;;12.18;65.38
29371;BME280;16357;52.188;7.838;2023-02-23T10:03:34;100693.44;;;12.20;65.29
29371;BME280;16357;52.188;7.838;2023-02-23T10:06:07;100693.44;;;12.20;65.27
29371;BME280;16357;52.188;7.838;2023-02-23T10:11:27;100700.16;;;12.24;65.36
29371;BME280;16357;52.188;7.838;2023-02-23T10:14:32;100689.41;;;12.24;65.57
29371;BME280;16357;52.188;7.838;2023-02-23T10:17:20;100699.81;;;12.27;65.46
29371;BME280;16357;52.188;7.838;2023-02-23T10:20:12;100708.53;;;12.29;65.50
29371;BME280;16357;52.188;7.838;2023-02-23T10:22:46;100709.22;;;12.32;65.22
29371;BME280;16357;52.188;7.838;2023-02-23T10:25:24;100708.22;;;12.33;65.16
29371;BME280;16357;52.188;7.838;2023-02-23T10:27:53;100698.31;;;12.33;64.96
29371;BME280;16357;52.188;7.838;2023-02-23T10:30:29;100702.84;;;12.33;64.85
29371;BME280;16357;52.188;7.838;2023-02-23T10:33:19;100701.16;;;12.32;65.05
29371;BME280;16357;52.188;7.838;2023-02-23T10:35:49;100703.16;;;12.29;65.09
29371;BME280;16357;52.188;7.838;2023-02-23T10:38:25;100707.88;;;12.27;65.48
29371;BME280;16357;52.188;7.838;2023-02-23T10:40:54;100701.50;;;12.28;65.17
29371;BME280;16357;52.188;7.838;2023-02-23T10:43:21;100697.13;;;12.27;65.16
29371;BME280;16357;52.188;7.838;2023-02-23T10:45:51;100696.94;;;12.29;65.74
29371;BME280;16357;52.188;7.838;2023-02-23T10:48:28;100698.66;;;12.30;65.42
29371;BME280;16357;52.188;7.838;2023-02-23T10:50:57;100696.59;;;12.32;65.19
29371;BME280;16357;52.188;7.838;2023-02-23T10:53:33;100702.84;;;12.33;65.13
29371;BME280;16357;52.188;7.838;2023-02-23T10:56:09;100698.31;;;12.33;65.36
29371;BME280;16357;52.188;7.838;2023-02-23T10:58:47;100699.13;;;12.34;65.31
29371;BME280;16357;52.188;7.838;2023-02-23T11:04:25;100705.88;;;12.38;65.22
29371;BME280;16357;52.188;7.838;2023-02-23T11:07:16;100708.38;;;12.39;65.37
29371;BME280;16357;52.188;7.838;2023-02-23T11:09:43;100702.84;;;12.41;65.51
29371;BME280;16357;52.188;7.838;2023-02-23T11:12:37;100710.41;;;12.45;65.42
29371;BME280;16357;52.188;7.838;2023-02-23T11:18:05;100698.28;;;12.49;64.60
29371;BME280;16357;52.188;7.838;2023-02-23T11:20:34;100709.88;;;12.50;64.31
29371;BME280;16357;52.188;7.838;2023-02-23T11:23:23;100711.91;;;12.48;64.45
29371;BME280;16357;52.188;7.838;2023-02-23T11:25:59;100712.56;;;12.42;64.43
29371;BME280;16357;52.188;7.838;2023-02-23T11:28:32;100712.91;;;12.39;64.29
29371;BME280;16357;52.188;7.838;2023-02-23T11:31:03;100708.88;;;12.35;64.32
29371;BME280;16357;52.188;7.838;2023-02-23T11:33:34;100704.84;;;12.30;64.90
29371;BME280;16357;52.188;7.838;2023-02-23T11:38:39;100700.16;;;12.33;64.93
29371;BME280;16357;52.188;7.838;2023-02-23T11:41:18;100698.13;;;12.35;64.95
29371;BME280;16357;52.188;7.838;2023-02-23T11:43:55;100698.97;;;12.35;64.78
29371;BME280;16357;52.188;7.838;2023-02-23T11:46:23;100695.44;;;12.35;64.79
29371;BME280;16357;52.188;7.838;2023-02-23T11:49:06;100688.88;;;12.37;64.93
29371;BME280;16357;52.188;7.838;2023-02-23T11:51:36;100692.22;;;12.39;65.37
29371;BME280;16357;52.188;7.838;2023-02-23T11:54:04;100683.16;;;12.40;65.39
29371;BME280;16357;52.188;7.838;2023-02-23T11:56:33;100686.34;;;12.44;65.17
29371;BME280;16357;52.188;7.838;2023-02-23T11:59:03;100691.22;;;12.48;65.21
29371;BME280;16357;52.188;7.838;2023-02-23T12:01:41;100689.88;;;12.52;65.06
29371;BME280;16357;52.188;7.838;2023-02-23T12:04:29;100692.22;;;12.56;64.84
29371;BME280;16357;52.188;7.838;2023-02-23T12:07:30;100694.75;;;12.57;64.18
29371;BME280;16357;52.188;7.838;2023-02-23T12:10:12;100686.00;;;12.55;64.29
29371;BME280;16357;52.188;7.838;2023-02-23T12:18:03;100695.75;;;12.48;64.40
29371;BME280;16357;52.188;7.838;2023-02-23T12:20:36;100687.19;;;12.44;64.41
29371;BME280;16357;52.188;7.838;2023-02-23T12:23:09;100689.03;;;12.44;64.97
29371;BME280;16357;52.188;7.838;2023-02-23T12:26:08;100691.88;;;12.42;64.79
29371;BME280;16357;52.188;7.838;2023-02-23T12:28:44;100691.88;;;12.42;64.56
29371;BME280;16357;52.188;7.838;2023-02-23T12:31:31;100696.44;;;12.42;64.19
29371;BME280;16357;52.188;7.838;2023-02-23T12:34:17;100703.84;;;12.40;63.90
29371;BME280;16357;52.188;7.838;2023-02-23T12:36:52;100697.97;;;12.36;63.93
29371;BME280;16357;52.188;7.838;2023-02-23T12:39:31;100697.63;;;12.31;64.23
29371;BME280;16357;52.188;7.838;2023-02-23T12:42:15;100690.25;;;12.25;64.35
29371;BME280;16357;52.188;7.838;2023-02-23T12:44:46;100698.81;;;12.20;64.77
29371;BME280;16357;52.188;7.838;2023-02-23T12:47:22;100695.44;;;12.18;64.63
29371;BME280;16357;52.188;7.838;2023-02-23T12:50:05;100701.84;;;12.17;65.34
29371;BME280;16357;52.188;7.838;2023-02-23T12:52:41;100690.72;;;12.20;65.01
29371;BME280;16357;52.188;7.838;2023-02-23T12:55:11;100684.53;;;12.20;65.01
29371;BME280;16357;52.188;7.838;2023-02-23T13:00:41;100691.75;;;12.19;64.58
29371;BME280;16357;52.188;7.838;2023-02-23T13:05:48;100697.44;;;12.16;64.62
29371;BME280;16357;52.188;7.838;2023-02-23T13:08:18;100703.16;;;12.13;64.63
29371;BME280;16357;52.188;7.838;2023-02-23T13:11:05;100703.50;;;12.10;64.33
29371;BME280;16357;52.188;7.838;2023-02-23T13:14:08;100700.13;;;12.08;64.18
29371;BME280;16357;52.188;7.838;2023-02-23T13:16:43;100696.94;;;12.04;64.11
29371;BME280;16357;52.188;7.838;2023-02-23T13:19:31;100702.81;;;12.00;64.17
29371;BME280;16357;52.188;7.838;2023-02-23T13:24:38;100698.47;;;11.91;64.16
29371;BME280;16357;52.188;7.838;2023-02-23T13:27:15;100703.47;;;11.85;64.07
29371;BME280;16357;52.188;7.838;2023-02-23T13:29:46;100702.09;;;11.81;64.20
29371;BME280;16357;52.188;7.838;2023-02-23T13:32:20;100702.59;;;11.77;64.11
29371;BME280;16357;52.188;7.838;2023-02-23T13:34:53;100710.16;;;11.73;64.20
29371;BME280;16357;52.188;7.838;2023-02-23T13:37:24;100705.25;;;11.69;64.12
29371;BME280;16357;52.188;7.838;2023-02-23T13:40:15;100709.13;;;11.66;64.36
29371;BME280;16357;52.188;7.838;2023-02-23T13:48:29;100712.78;;;11.57;64.66
29371;BME280;16357;52.188;7.838;2023-02-23T13:51:34;100728.22;;;11.55;64.85
29371;BME280;16357;52.188;7.838;2023-02-23T13:56:43;100728.22;;;11.47;64.18
29371;BME280;16357;52.188;7.838;2023-02-23T13:59:18;100728.88;;;11.40;63.85
29371;BME280;16357;52.188;7.838;2023-02-23T14:01:51;100726.81;;;11.34;64.02
29371;BME280;16357;52.188;7.838;2023-02-23T14:04:24;100721.06;;;11.29;64.25
29371;BME280;16357;52.188;7.838;2023-02-23T14:09:21;100721.38;;;11.18;64.99
29371;BME280;16357;52.188;7.838;2023-02-23T14:12:01;100722.72;;;11.14;64.97
29371;BME280;16357;52.188;7.838;2023-02-23T14:19:41;100718.66;;;11.10;65.18
29371;BME280;16357;52.188;7.838;2023-02-23T14:22:12;100726.56;;;11.11;65.12
29371;BME280;16357;52.188;7.838;2023-02-23T14:24:40;100722.16;;;11.10;64.83